Time,TemperatureF,DewpointF,PressureIn,WindDirection,WindDirectionDegrees,WindSpeedMPH,WindSpeedGustMPH,Humidity,HourlyPrecipIn,Conditions,Clouds,dailyrainin,SoftwareType,DateUTC
2013-10-09 00:00:00,41.4,39.0,30.30,NNE,14,0.0,0.0,91,0.00,,,0.00,Wunderground v.1.13,2013-10-09 04:00:00,
2013-10-09 00:01:00,41.4,39.0,30.30,NNE,14,0.0,0.0,91,0.00,,,0.00,Wunderground v.1.13,2013-10-09 04:01:00,
2013-10-09 00:02:00,41.4,39.0,30.29,NNE,14,0.0,0.0,91,0.00,,,0.00,Wunderground v.1.13,2013-10-09 04:02:00,
2013-10-09 00:07:00,41.2,39.1,30.29,NNE,14,0.0,0.0,92,0.00,,,0.00,Wunderground v.1.13,2013-10-09 04:07:00,
2013-10-09 00:12:00,41.1,39.0,30.29,NNE,14,0.0,0.0,92,0.00,,,0.00,Wunderground v.1.13,2013-10-09 04:12:00,
2013-10-09 00:17:00,41.0,38.9,30.29,NNE,14,0.0,0.0,92,0.00,,,0.00,Wunderground v.1.13,2013-10-09 04:17:00,
2013-10-09 00:22:00,41.0,38.9,30.29,NNE,14,0.0,0.0,92,0.00,,,0.00,Wunderground v.1.13,2013-10-09 04:22:00,
2013-10-09 00:27:00,40.9,38.8,30.28,NNE,14,0.0,1.0,92,0.00,,,0.00,Wunderground v.1.13,2013-10-09 04:27:00,
2013-10-09 00:33:00,40.8,38.7,30.29,NNE,14,0.0,0.0,92,0.00,,,0.00,Wunderground v.1.13,2013-10-09 04:33:00,
2013-10-09 00:38:00,40.8,38.7,30.28,NNE,14,0.0,0.0,92,0.00,,,0.00,Wunderground v.1.13,2013-10-09 04:38:00,
2013-10-09 00:42:00,40.7,38.6,30.28,NNE,14,0.0,0.0,92,0.00,,,0.00,Wunderground v.1.13,2013-10-09 04:42:00,
2013-10-09 00:47:00,40.6,38.7,30.28,NNE,14,0.0,0.0,93,0.00,,,0.00,Wunderground v.1.13,2013-10-09 04:47:00,
2013-10-09 00:52:00,40.5,38.6,30.28,NNE,14,0.0,0.0,93,0.00,,,0.00,Wunderground v.1.13,2013-10-09 04:52:00,
2013-10-09 00:58:00,40.4,38.5,30.28,NNE,14,0.0,0.0,93,0.00,,,0.00,Wunderground v.1.13,2013-10-09 04:58:00,
2013-10-09 01:03:00,40.4,38.5,30.28,NNE,14,0.0,0.0,93,0.00,,,0.00,Wunderground v.1.13,2013-10-09 05:03:00,
2013-10-09 01:08:00,40.3,38.4,30.29,NNE,14,0.0,0.0,93,0.00,,,0.00,Wunderground v.1.13,2013-10-09 05:08:00,
2013-10-09 01:13:00,40.2,38.3,30.29,NNE,14,0.0,0.0,93,0.00,,,0.00,Wunderground v.1.13,2013-10-09 05:13:00,
2013-10-09 01:19:00,40.1,38.2,30.28,NNE,14,0.0,0.0,93,0.00,,,0.00,Wunderground v.1.13,2013-10-09 05:19:00,
2013-10-09 01:25:00,40.0,38.1,30.28,NNE,14,0.0,0.0,93,0.00,,,0.00,Wunderground v.1.13,2013-10-09 05:25:00,
2013-10-09 01:31:00,39.9,38.0,30.28,NNE,14,0.0,0.0,93,0.00,,,0.00,Wunderground v.1.13,2013-10-09 05:31:00,
2013-10-09 01:36:00,39.9,38.0,30.28,NNE,14,0.0,0.0,93,0.00,,,0.00,Wunderground v.1.13,2013-10-09 05:36:00,
2013-10-09 01:42:00,39.8,37.9,30.28,NNE,14,0.0,0.0,93,0.00,,,0.00,Wunderground v.1.13,2013-10-09 05:42:00,
2013-10-09 01:48:00,39.8,37.9,30.28,NNE,14,0.0,0.0,93,0.00,,,0.00,Wunderground v.1.13,2013-10-09 05:48:00,
2013-10-09 01:54:00,39.7,38.1,30.29,NNE,14,0.0,0.0,94,0.00,,,0.00,Wunderground v.1.13,2013-10-09 05:54:00,
2013-10-09 01:59:00,39.7,38.1,30.28,NNE,14,0.0,0.0,94,0.00,,,0.00,Wunderground v.1.13,2013-10-09 05:59:00,
2013-10-09 02:05:00,39.6,38.0,30.28,NNE,14,0.0,0.0,94,0.00,,,0.00,Wunderground v.1.13,2013-10-09 06:05:00,
2013-10-09 02:11:00,39.6,38.0,30.29,NNE,14,0.0,0.0,94,0.00,,,0.00,Wunderground v.1.13,2013-10-09 06:11:00,
2013-10-09 02:17:00,39.5,37.9,30.29,NNE,14,0.0,0.0,94,0.00,,,0.00,Wunderground v.1.13,2013-10-09 06:17:00,
2013-10-09 02:23:00,39.4,37.8,30.28,NNE,14,0.0,0.0,94,0.00,,,0.00,Wunderground v.1.13,2013-10-09 06:23:00,
2013-10-09 02:29:00,39.4,37.8,30.28,NNE,14,0.0,0.0,94,0.00,,,0.00,Wunderground v.1.13,2013-10-09 06:29:00,
2013-10-09 02:34:00,39.3,37.7,30.28,NNE,14,0.0,0.0,94,0.00,,,0.00,Wunderground v.1.13,2013-10-09 06:34:00,
2013-10-09 02:40:00,39.2,37.6,30.28,NNE,14,0.0,0.0,94,0.00,,,0.00,Wunderground v.1.13,2013-10-09 06:40:00,
2013-10-09 02:46:00,39.1,37.5,30.28,NNE,14,0.0,0.0,94,0.00,,,0.00,Wunderground v.1.13,2013-10-09 06:46:00,
2013-10-09 02:51:00,39.1,37.5,30.28,NNE,14,0.0,0.0,94,0.00,,,0.00,Wunderground v.1.13,2013-10-09 06:51:00,
2013-10-09 02:57:00,39.0,37.4,30.28,NNE,14,0.0,0.0,94,0.00,,,0.00,Wunderground v.1.13,2013-10-09 06:57:00,
2013-10-09 03:02:00,38.8,37.2,30.27,NNE,14,0.0,0.0,94,0.00,,,0.00,Wunderground v.1.13,2013-10-09 07:02:00,
2013-10-09 03:07:00,38.7,37.1,30.27,NNE,14,0.0,0.0,94,0.00,,,0.00,Wunderground v.1.13,2013-10-09 07:07:00,
2013-10-09 03:12:00,38.7,37.1,30.27,NNE,14,0.0,0.0,94,0.00,,,0.00,Wunderground v.1.13,2013-10-09 07:12:00,
2013-10-09 03:17:00,38.6,37.0,30.27,NNE,14,0.0,0.0,94,0.00,,,0.00,Wunderground v.1.13,2013-10-09 07:17:00,
2013-10-09 03:22:00,38.5,36.9,30.27,NNE,14,0.0,0.0,94,0.00,,,0.00,Wunderground v.1.13,2013-10-09 07:22:00,
2013-10-09 03:27:00,38.5,36.9,30.27,NNE,14,0.0,1.0,94,0.00,,,0.00,Wunderground v.1.13,2013-10-09 07:27:00,
2013-10-09 03:32:00,38.5,36.9,30.27,NNE,14,0.0,0.0,94,0.00,,,0.00,Wunderground v.1.13,2013-10-09 07:32:00,
2013-10-09 03:37:00,38.4,36.8,30.26,NNE,14,0.0,0.0,94,0.00,,,0.00,Wunderground v.1.13,2013-10-09 07:37:00,
2013-10-09 03:42:00,38.4,36.8,30.26,NNE,14,0.0,0.0,94,0.00,,,0.00,Wunderground v.1.13,2013-10-09 07:42:00,
2013-10-09 03:47:00,38.3,36.7,30.26,NNE,14,0.0,0.0,94,0.00,,,0.00,Wunderground v.1.13,2013-10-09 07:47:00,
2013-10-09 03:52:00,38.2,36.6,30.26,NNE,14,0.0,0.0,94,0.00,,,0.00,Wunderground v.1.13,2013-10-09 07:52:00,
2013-10-09 03:57:00,38.1,36.5,30.26,NNE,14,0.0,3.0,94,0.00,,,0.00,Wunderground v.1.13,2013-10-09 07:57:00,
2013-10-09 04:02:00,38.2,36.6,30.27,NNE,14,0.0,2.0,94,0.00,,,0.00,Wunderground v.1.13,2013-10-09 08:02:00,
2013-10-09 04:07:00,38.3,37.0,30.27,NNE,14,0.0,0.0,95,0.00,,,0.00,Wunderground v.1.13,2013-10-09 08:07:00,
2013-10-09 04:12:00,38.3,37.0,30.26,NNE,14,0.0,1.0,95,0.00,,,0.00,Wunderground v.1.13,2013-10-09 08:12:00,
2013-10-09 04:17:00,38.3,37.0,30.26,NNE,14,1.0,2.0,95,0.00,,,0.00,Wunderground v.1.13,2013-10-09 08:17:00,
2013-10-09 04:22:00,38.3,37.0,30.26,NNE,14,0.0,0.0,95,0.00,,,0.00,Wunderground v.1.13,2013-10-09 08:22:00,
2013-10-09 04:27:00,38.3,37.0,30.26,NNE,14,0.0,1.0,95,0.00,,,0.00,Wunderground v.1.13,2013-10-09 08:27:00,
2013-10-09 04:32:00,38.3,37.0,30.26,NNE,14,0.0,1.0,95,0.00,,,0.00,Wunderground v.1.13,2013-10-09 08:32:00,
2013-10-09 04:37:00,38.4,37.1,30.26,NNE,14,0.0,2.0,95,0.00,,,0.00,Wunderground v.1.13,2013-10-09 08:37:00,
2013-10-09 04:42:00,38.5,37.2,30.26,NNE,14,2.0,2.0,95,0.00,,,0.00,Wunderground v.1.13,2013-10-09 08:42:00,
2013-10-09 04:47:00,38.5,37.2,30.26,NNE,14,1.0,4.0,95,0.00,,,0.00,Wunderground v.1.13,2013-10-09 08:47:00,
2013-10-09 04:52:00,38.7,37.4,30.26,NNE,14,2.0,2.0,95,0.00,,,0.00,Wunderground v.1.13,2013-10-09 08:52:00,
2013-10-09 04:57:00,38.7,37.4,30.26,NNE,14,0.0,3.0,95,0.00,,,0.00,Wunderground v.1.13,2013-10-09 08:57:00,
2013-10-09 05:02:00,38.8,37.5,30.26,NNE,14,0.0,1.0,95,0.00,,,0.00,Wunderground v.1.13,2013-10-09 09:02:00,
2013-10-09 05:07:00,38.9,37.6,30.26,NNE,14,0.0,2.0,95,0.00,,,0.00,Wunderground v.1.13,2013-10-09 09:07:00,
2013-10-09 05:12:00,39.0,37.7,30.27,NNE,14,0.0,3.0,95,0.00,,,0.00,Wunderground v.1.13,2013-10-09 09:12:00,
2013-10-09 05:17:00,39.2,37.9,30.26,NNE,14,0.0,1.0,95,0.00,,,0.00,Wunderground v.1.13,2013-10-09 09:17:00,
2013-10-09 05:22:00,39.2,37.9,30.27,NNE,14,0.0,1.0,95,0.00,,,0.00,Wunderground v.1.13,2013-10-09 09:22:00,
2013-10-09 05:27:00,39.2,37.9,30.27,NNE,14,0.0,3.0,95,0.00,,,0.00,Wunderground v.1.13,2013-10-09 09:27:00,
2013-10-09 05:32:00,39.3,38.0,30.27,NNE,14,2.0,3.0,95,0.00,,,0.00,Wunderground v.1.13,2013-10-09 09:32:00,
2013-10-09 05:37:00,39.5,38.5,30.27,NNE,14,0.0,1.0,96,0.00,,,0.00,Wunderground v.1.13,2013-10-09 09:37:00,
2013-10-09 05:42:00,39.6,38.6,30.27,NNE,14,0.0,4.0,96,0.00,,,0.00,Wunderground v.1.13,2013-10-09 09:42:00,
2013-10-09 05:47:00,39.7,38.7,30.27,NNE,14,0.0,1.0,96,0.00,,,0.00,Wunderground v.1.13,2013-10-09 09:47:00,
2013-10-09 05:52:00,39.8,38.5,30.27,NNE,14,0.0,0.0,95,0.00,,,0.00,Wunderground v.1.13,2013-10-09 09:52:00,
2013-10-09 05:57:00,39.8,38.5,30.27,NNE,14,0.0,0.0,95,0.00,,,0.00,Wunderground v.1.13,2013-10-09 09:57:00,
2013-10-09 06:02:00,39.9,38.6,30.28,NNE,14,0.0,0.0,95,0.00,,,0.00,Wunderground v.1.13,2013-10-09 10:02:00,
2013-10-09 06:07:00,39.9,38.6,30.27,NNE,14,0.0,1.0,95,0.00,,,0.00,Wunderground v.1.13,2013-10-09 10:07:00,
2013-10-09 06:12:00,40.0,38.7,30.28,NNE,14,0.0,1.0,95,0.00,,,0.00,Wunderground v.1.13,2013-10-09 10:12:00,
2013-10-09 06:17:00,40.1,39.1,30.27,NNE,14,0.0,1.0,96,0.00,,,0.00,Wunderground v.1.13,2013-10-09 10:17:00,
2013-10-09 06:22:00,40.1,39.1,30.28,NNE,14,0.0,0.0,96,0.00,,,0.00,Wunderground v.1.13,2013-10-09 10:22:00,
2013-10-09 06:27:00,40.2,39.2,30.28,NNE,14,0.0,1.0,96,0.00,,,0.00,Wunderground v.1.13,2013-10-09 10:27:00,
2013-10-09 06:32:00,40.2,39.2,30.28,NNE,14,0.0,0.0,96,0.00,,,0.00,Wunderground v.1.13,2013-10-09 10:32:00,
2013-10-09 06:37:00,40.2,39.2,30.28,NNE,14,0.0,1.0,96,0.00,,,0.00,Wunderground v.1.13,2013-10-09 10:37:00,
2013-10-09 06:42:00,40.3,39.3,30.28,NNE,14,0.0,0.0,96,0.00,,,0.00,Wunderground v.1.13,2013-10-09 10:42:00,
2013-10-09 06:47:00,40.3,39.3,30.28,NNE,14,0.0,1.0,96,0.00,,,0.00,Wunderground v.1.13,2013-10-09 10:47:00,
2013-10-09 06:52:00,40.4,39.4,30.28,NNE,14,0.0,2.0,96,0.00,,,0.00,Wunderground v.1.13,2013-10-09 10:52:00,
2013-10-09 06:57:00,40.6,39.5,30.27,NNE,14,0.0,1.0,96,0.00,,,0.00,Wunderground v.1.13,2013-10-09 10:57:00,
2013-10-09 07:02:00,40.6,39.5,30.27,NNE,14,0.0,0.0,96,0.00,,,0.00,Wunderground v.1.13,2013-10-09 11:02:00,
2013-10-09 07:08:00,40.6,39.5,30.27,NNE,14,0.0,0.0,96,0.00,,,0.00,Wunderground v.1.13,2013-10-09 11:08:00,
2013-10-09 07:13:00,40.7,39.6,30.27,NNE,14,2.0,3.0,96,0.00,,,0.00,Wunderground v.1.13,2013-10-09 11:13:00,
2013-10-09 07:18:00,40.9,39.8,30.27,NNE,14,0.0,3.0,96,0.00,,,0.00,Wunderground v.1.13,2013-10-09 11:18:00,
2013-10-09 07:23:00,41.1,40.0,30.27,NNE,14,0.0,1.0,96,0.00,,,0.00,Wunderground v.1.13,2013-10-09 11:23:00,
2013-10-09 07:28:00,41.2,40.1,30.27,NNE,14,0.0,3.0,96,0.00,,,0.00,Wunderground v.1.13,2013-10-09 11:28:00,
2013-10-09 07:33:00,41.5,40.4,30.28,NNE,14,0.0,0.0,96,0.00,,,0.00,Wunderground v.1.13,2013-10-09 11:33:00,
2013-10-09 07:38:00,41.5,40.4,30.28,NNE,14,0.0,2.0,96,0.00,,,0.00,Wunderground v.1.13,2013-10-09 11:38:00,
2013-10-09 07:43:00,41.6,40.5,30.28,NNE,14,0.0,0.0,96,0.00,,,0.00,Wunderground v.1.13,2013-10-09 11:43:00,
2013-10-09 07:48:00,41.8,40.7,30.28,NNE,14,0.0,1.0,96,0.00,,,0.00,Wunderground v.1.13,2013-10-09 11:48:00,
2013-10-09 07:53:00,42.1,41.0,30.29,NNE,14,0.0,0.0,96,0.00,,,0.00,Wunderground v.1.13,2013-10-09 11:53:00,
2013-10-09 07:58:00,42.3,41.2,30.29,NNE,14,0.0,0.0,96,0.00,,,0.00,Wunderground v.1.13,2013-10-09 11:58:00,
2013-10-09 08:03:00,42.7,41.6,30.29,NNE,14,0.0,0.0,96,0.00,,,0.00,Wunderground v.1.13,2013-10-09 12:03:00,
2013-10-09 08:08:00,42.9,41.8,30.29,NNE,14,0.0,1.0,96,0.00,,,0.00,Wunderground v.1.13,2013-10-09 12:08:00,
2013-10-09 08:13:00,43.3,42.2,30.29,NNE,14,0.0,2.0,96,0.00,,,0.00,Wunderground v.1.13,2013-10-09 12:13:00,
2013-10-09 08:18:00,43.8,43.0,30.29,NNE,14,0.0,1.0,97,0.00,,,0.00,Wunderground v.1.13,2013-10-09 12:18:00,
2013-10-09 08:23:00,44.3,43.5,30.29,NNE,14,0.0,1.0,97,0.00,,,0.00,Wunderground v.1.13,2013-10-09 12:23:00,
2013-10-09 08:28:00,44.7,43.9,30.29,NNE,14,0.0,3.0,97,0.00,,,0.00,Wunderground v.1.13,2013-10-09 12:28:00,
2013-10-09 08:33:00,45.0,44.2,30.29,NNE,14,0.0,0.0,97,0.00,,,0.00,Wunderground v.1.13,2013-10-09 12:33:00,
2013-10-09 08:38:00,45.4,44.6,30.30,NNE,14,0.0,2.0,97,0.00,,,0.00,Wunderground v.1.13,2013-10-09 12:38:00,
2013-10-09 08:43:00,45.6,44.8,30.30,NNE,14,0.0,0.0,97,0.00,,,0.00,Wunderground v.1.13,2013-10-09 12:43:00,
2013-10-09 08:48:00,46.0,45.2,30.30,NNE,14,0.0,1.0,97,0.00,,,0.00,Wunderground v.1.13,2013-10-09 12:48:00,
2013-10-09 08:53:00,46.2,45.4,30.30,NNE,14,0.0,1.0,97,0.00,,,0.00,Wunderground v.1.13,2013-10-09 12:53:00,
2013-10-09 08:58:00,46.4,45.6,30.30,NNE,14,0.0,5.0,97,0.00,,,0.00,Wunderground v.1.13,2013-10-09 12:58:00,
2013-10-09 09:03:00,46.7,45.9,30.31,NNE,14,0.0,1.0,97,0.00,,,0.00,Wunderground v.1.13,2013-10-09 13:03:00,
2013-10-09 09:08:00,46.9,46.1,30.31,North,11,2.0,6.0,97,0.00,,,0.00,Wunderground v.1.13,2013-10-09 13:08:00,
2013-10-09 09:13:00,47.2,46.4,30.31,North,11,0.0,1.0,97,0.00,,,0.00,Wunderground v.1.13,2013-10-09 13:13:00,
2013-10-09 09:18:00,47.4,46.6,30.31,North,11,0.0,3.0,97,0.00,,,0.00,Wunderground v.1.13,2013-10-09 13:18:00,
2013-10-09 09:23:00,47.6,46.8,30.31,North,11,1.0,6.0,97,0.00,,,0.00,Wunderground v.1.13,2013-10-09 13:23:00,
2013-10-09 09:28:00,47.9,47.1,30.31,NNE,13,0.0,5.0,97,0.00,,,0.00,Wunderground v.1.13,2013-10-09 13:28:00,
2013-10-09 09:33:00,48.2,47.4,30.31,NNE,13,0.0,4.0,97,0.00,,,0.00,Wunderground v.1.13,2013-10-09 13:33:00,
2013-10-09 09:38:00,48.9,48.1,30.32,NNE,13,0.0,2.0,97,0.00,,,0.00,Wunderground v.1.13,2013-10-09 13:38:00,
2013-10-09 09:43:00,49.5,48.7,30.31,North,11,1.0,6.0,97,0.00,,,0.00,Wunderground v.1.13,2013-10-09 13:43:00,
2013-10-09 09:48:00,49.7,48.9,30.31,North,5,7.0,8.0,97,0.00,,,0.00,Wunderground v.1.13,2013-10-09 13:48:00,
2013-10-09 09:53:00,50.3,49.5,30.31,ENE,59,1.0,10.0,97,0.00,,,0.00,Wunderground v.1.13,2013-10-09 13:53:00,
2013-10-09 09:58:00,50.6,49.5,30.31,North,355,7.0,8.0,96,0.00,,,0.00,Wunderground v.1.13,2013-10-09 13:58:00,
2013-10-09 10:03:00,51.2,49.5,30.31,North,355,2.0,5.0,94,0.00,,,0.00,Wunderground v.1.13,2013-10-09 14:03:00,
2013-10-09 10:08:00,51.7,49.2,30.31,North,360,0.0,2.0,91,0.00,,,0.00,Wunderground v.1.13,2013-10-09 14:08:00,
2013-10-09 10:13:00,52.3,49.2,30.31,North,360,0.0,1.0,89,0.00,,,0.00,Wunderground v.1.13,2013-10-09 14:13:00,
2013-10-09 10:18:00,52.8,48.4,30.31,North,360,0.0,5.0,85,0.00,,,0.00,Wunderground v.1.13,2013-10-09 14:18:00,
2013-10-09 10:23:00,53.5,48.1,30.31,North,355,0.0,4.0,82,0.00,,,0.00,Wunderground v.1.13,2013-10-09 14:23:00,
2013-10-09 10:28:00,54.0,47.6,30.31,North,360,4.0,4.0,79,0.00,,,0.00,Wunderground v.1.13,2013-10-09 14:28:00,
2013-10-09 10:33:00,54.5,47.1,30.31,North,360,0.0,1.0,76,0.00,,,0.00,Wunderground v.1.13,2013-10-09 14:33:00,
2013-10-09 10:38:00,55.1,46.2,30.31,NNW,346,2.0,7.0,72,0.00,,,0.00,Wunderground v.1.13,2013-10-09 14:38:00,
2013-10-09 10:43:00,56.2,47.7,30.31,NNW,346,2.0,2.0,73,0.00,,,0.00,Wunderground v.1.13,2013-10-09 14:43:00,
2013-10-09 10:48:00,57.4,48.8,30.31,NW,319,0.0,5.0,73,0.00,,,0.00,Wunderground v.1.13,2013-10-09 14:48:00,
2013-10-09 10:53:00,58.4,47.1,30.31,NW,319,0.0,2.0,66,0.00,,,0.00,Wunderground v.1.13,2013-10-09 14:53:00,
2013-10-09 10:58:00,59.4,48.0,30.31,NNW,342,2.0,5.0,66,0.00,,,0.00,Wunderground v.1.13,2013-10-09 14:58:00,
2013-10-09 11:03:00,59.8,48.4,30.31,NNE,13,5.0,5.0,66,0.00,,,0.00,Wunderground v.1.13,2013-10-09 15:03:00,
2013-10-09 11:08:00,60.2,46.7,30.30,ENE,61,4.0,8.0,61,0.00,,,0.00,Wunderground v.1.13,2013-10-09 15:08:00,
2013-10-09 11:13:00,60.7,46.7,30.30,NE,53,0.0,5.0,60,0.00,,,0.00,Wunderground v.1.13,2013-10-09 15:13:00,
2013-10-09 11:18:00,61.1,46.7,30.31,East,97,0.0,8.0,59,0.00,,,0.00,Wunderground v.1.13,2013-10-09 15:18:00,
2013-10-09 11:23:00,61.4,46.9,30.31,East,88,3.0,9.0,59,0.00,,,0.00,Wunderground v.1.13,2013-10-09 15:23:00,
2013-10-09 11:28:00,61.6,46.7,30.31,East,84,3.0,6.0,58,0.00,,,0.00,Wunderground v.1.13,2013-10-09 15:28:00,
2013-10-09 11:33:00,62.1,45.7,30.31,East,87,5.0,8.0,55,0.00,,,0.00,Wunderground v.1.13,2013-10-09 15:33:00,
2013-10-09 11:38:00,62.3,45.9,30.31,East,80,6.0,10.0,55,0.00,,,0.00,Wunderground v.1.13,2013-10-09 15:38:00,
2013-10-09 11:43:00,62.3,44.9,30.31,East,93,9.0,9.0,53,0.00,,,0.00,Wunderground v.1.13,2013-10-09 15:43:00,
2013-10-09 11:48:00,62.1,45.2,30.31,East,92,1.0,8.0,54,0.00,,,0.00,Wunderground v.1.13,2013-10-09 15:48:00,
2013-10-09 11:53:00,62.0,44.7,30.31,East,91,4.0,7.0,53,0.00,,,0.00,Wunderground v.1.13,2013-10-09 15:53:00,
2013-10-09 11:58:00,62.2,44.3,30.31,East,92,0.0,10.0,52,0.00,,,0.00,Wunderground v.1.13,2013-10-09 15:58:00,
2013-10-09 12:03:00,62.5,44.1,30.31,East,82,0.0,9.0,51,0.00,,,0.00,Wunderground v.1.13,2013-10-09 16:03:00,
2013-10-09 12:08:00,62.9,45.5,30.31,East,80,0.0,13.0,53,0.00,,,0.00,Wunderground v.1.13,2013-10-09 16:08:00,
2013-10-09 12:13:00,63.1,44.2,30.30,ESE,102,2.0,6.0,50,0.00,,,0.00,Wunderground v.1.13,2013-10-09 16:13:00,
2013-10-09 12:18:00,63.3,43.8,30.30,East,86,1.0,8.0,49,0.00,,,0.00,Wunderground v.1.13,2013-10-09 16:18:00,
2013-10-09 12:23:00,63.9,45.4,30.30,East,84,0.0,8.0,51,0.00,,,0.00,Wunderground v.1.13,2013-10-09 16:23:00,
2013-10-09 12:28:00,64.3,43.6,30.30,ENE,64,8.0,14.0,47,0.00,,,0.00,Wunderground v.1.13,2013-10-09 16:28:00,
2013-10-09 12:33:00,65.0,45.4,30.30,East,80,3.0,10.0,49,0.00,,,0.00,Wunderground v.1.13,2013-10-09 16:33:00,
2013-10-09 12:38:00,65.0,44.3,30.30,ENE,68,7.0,14.0,47,0.00,,,0.00,Wunderground v.1.13,2013-10-09 16:38:00,
2013-10-09 12:43:00,65.4,44.1,30.29,ESE,103,1.0,6.0,46,0.00,,,0.00,Wunderground v.1.13,2013-10-09 16:43:00,
2013-10-09 12:48:00,65.3,42.2,30.29,East,96,0.0,6.0,43,0.00,,,0.00,Wunderground v.1.13,2013-10-09 16:48:00,
2013-10-09 12:53:00,65.2,42.7,30.29,ESE,105,0.0,8.0,44,0.00,,,0.00,Wunderground v.1.13,2013-10-09 16:53:00,
2013-10-09 12:58:00,65.5,43.0,30.29,SSE,157,2.0,10.0,44,0.00,,,0.00,Wunderground v.1.13,2013-10-09 16:58:00,
2013-10-09 13:03:00,65.9,43.4,30.29,SE,141,4.0,8.0,44,0.00,,,0.00,Wunderground v.1.13,2013-10-09 17:03:00,
2013-10-09 13:08:00,65.8,43.3,30.28,SSE,148,0.0,6.0,44,0.00,,,0.00,Wunderground v.1.13,2013-10-09 17:08:00,
2013-10-09 13:13:00,66.1,42.9,30.28,SSE,153,0.0,11.0,43,0.00,,,0.00,Wunderground v.1.13,2013-10-09 17:13:00,
2013-10-09 13:18:00,66.4,42.6,30.28,SSE,159,4.0,10.0,42,0.00,,,0.00,Wunderground v.1.13,2013-10-09 17:18:00,
2013-10-09 13:23:00,66.4,42.6,30.27,SE,134,0.0,5.0,42,0.00,,,0.00,Wunderground v.1.13,2013-10-09 17:23:00,
2013-10-09 13:28:00,66.5,42.7,30.27,ESE,111,4.0,6.0,42,0.00,,,0.00,Wunderground v.1.13,2013-10-09 17:28:00,
2013-10-09 13:33:00,66.4,41.3,30.27,ESE,113,0.0,5.0,40,0.00,,,0.00,Wunderground v.1.13,2013-10-09 17:33:00,
2013-10-09 13:38:00,66.5,42.7,30.27,ESE,113,0.0,2.0,42,0.00,,,0.00,Wunderground v.1.13,2013-10-09 17:38:00,
2013-10-09 13:43:00,66.7,43.5,30.27,ESE,113,0.0,5.0,43,0.00,,,0.00,Wunderground v.1.13,2013-10-09 17:43:00,
2013-10-09 13:48:00,67.0,43.1,30.27,ENE,65,6.0,7.0,42,0.00,,,0.00,Wunderground v.1.13,2013-10-09 17:48:00,
2013-10-09 13:53:00,67.1,41.3,30.27,ESE,107,1.0,8.0,39,0.00,,,0.00,Wunderground v.1.13,2013-10-09 17:53:00,
2013-10-09 13:58:00,67.2,41.4,30.26,ESE,105,0.0,7.0,39,0.00,,,0.00,Wunderground v.1.13,2013-10-09 17:58:00,
2013-10-09 14:03:00,67.0,40.5,30.26,SE,133,4.0,8.0,38,0.00,,,0.00,Wunderground v.1.13,2013-10-09 18:03:00,
2013-10-09 14:08:00,66.6,42.2,30.26,ESE,118,0.0,6.0,41,0.00,,,0.00,Wunderground v.1.13,2013-10-09 18:08:00,
2013-10-09 14:13:00,66.7,42.9,30.26,ESE,118,1.0,4.0,42,0.00,,,0.00,Wunderground v.1.13,2013-10-09 18:13:00,
2013-10-09 14:18:00,66.9,40.5,30.26,SE,132,0.0,11.0,38,0.00,,,0.00,Wunderground v.1.13,2013-10-09 18:18:00,
2013-10-09 14:23:00,67.3,40.1,30.26,East,100,11.0,11.0,37,0.00,,,0.00,Wunderground v.1.13,2013-10-09 18:23:00,
2013-10-09 14:28:00,67.5,38.9,30.26,ENE,76,8.0,10.0,35,0.00,,,0.00,Wunderground v.1.13,2013-10-09 18:28:00,
2013-10-09 14:33:00,67.6,39.7,30.26,East,83,3.0,10.0,36,0.00,,,0.00,Wunderground v.1.13,2013-10-09 18:33:00,
2013-10-09 14:38:00,67.5,39.6,30.26,SE,128,1.0,9.0,36,0.00,,,0.00,Wunderground v.1.13,2013-10-09 18:38:00,
2013-10-09 14:43:00,67.0,39.9,30.25,ESE,105,4.0,7.0,37,0.00,,,0.00,Wunderground v.1.13,2013-10-09 18:43:00,
2013-10-09 14:48:00,66.9,40.5,30.25,East,86,4.0,8.0,38,0.00,,,0.00,Wunderground v.1.13,2013-10-09 18:48:00,
2013-10-09 14:53:00,67.2,40.0,30.25,ESE,113,0.0,6.0,37,0.00,,,0.00,Wunderground v.1.13,2013-10-09 18:53:00,
2013-10-09 14:58:00,67.3,41.5,30.25,ESE,111,0.0,6.0,39,0.00,,,0.00,Wunderground v.1.13,2013-10-09 18:58:00,
2013-10-09 15:03:00,67.4,40.9,30.25,East,82,3.0,10.0,38,0.00,,,0.00,Wunderground v.1.13,2013-10-09 19:03:00,
2013-10-09 15:08:00,67.0,41.9,30.25,East,94,0.0,5.0,40,0.00,,,0.00,Wunderground v.1.13,2013-10-09 19:08:00,
2013-10-09 15:13:00,66.9,41.8,30.25,East,93,2.0,7.0,40,0.00,,,0.00,Wunderground v.1.13,2013-10-09 19:13:00,
2013-10-09 15:18:00,66.8,41.0,30.25,East,85,0.0,4.0,39,0.00,,,0.00,Wunderground v.1.13,2013-10-09 19:18:00,
2013-10-09 15:23:00,66.8,42.3,30.25,ESE,113,0.0,6.0,41,0.00,,,0.00,Wunderground v.1.13,2013-10-09 19:23:00,
2013-10-09 15:28:00,66.6,40.9,30.25,ESE,115,0.0,4.0,39,0.00,,,0.00,Wunderground v.1.13,2013-10-09 19:28:00,
2013-10-09 15:33:00,66.5,42.7,30.25,East,100,4.0,7.0,42,0.00,,,0.00,Wunderground v.1.13,2013-10-09 19:33:00,
2013-10-09 15:38:00,66.4,42.0,30.25,East,94,0.0,4.0,41,0.00,,,0.00,Wunderground v.1.13,2013-10-09 19:38:00,
2013-10-09 15:43:00,66.1,41.7,30.25,East,88,0.0,7.0,41,0.00,,,0.00,Wunderground v.1.13,2013-10-09 19:43:00,
2013-10-09 15:48:00,65.9,41.5,30.26,ESE,110,4.0,7.0,41,0.00,,,0.00,Wunderground v.1.13,2013-10-09 19:48:00,
2013-10-09 15:53:00,65.6,41.9,30.26,ESE,108,1.0,7.0,42,0.00,,,0.00,Wunderground v.1.13,2013-10-09 19:53:00,
2013-10-09 15:58:00,65.4,41.7,30.26,East,101,5.0,9.0,42,0.00,,,0.00,Wunderground v.1.13,2013-10-09 19:58:00,
2013-10-09 16:03:00,65.1,41.4,30.26,East,98,2.0,5.0,42,0.00,,,0.00,Wunderground v.1.13,2013-10-09 20:03:00,
2013-10-09 16:08:00,64.8,42.4,30.25,ESE,119,4.0,6.0,44,0.00,,,0.00,Wunderground v.1.13,2013-10-09 20:08:00,
2013-10-09 16:13:00,64.6,42.2,30.25,ESE,103,1.0,5.0,44,0.00,,,0.00,Wunderground v.1.13,2013-10-09 20:13:00,
2013-10-09 16:18:00,64.4,42.0,30.25,SE,128,0.0,7.0,44,0.00,,,0.00,Wunderground v.1.13,2013-10-09 20:18:00,
2013-10-09 16:23:00,64.2,41.8,30.25,SE,127,0.0,5.0,44,0.00,,,0.00,Wunderground v.1.13,2013-10-09 20:23:00,
2013-10-09 16:28:00,64.1,41.7,30.25,SE,126,0.0,5.0,44,0.00,,,0.00,Wunderground v.1.13,2013-10-09 20:28:00,
2013-10-09 16:33:00,63.8,43.2,30.25,SE,126,1.0,4.0,47,0.00,,,0.00,Wunderground v.1.13,2013-10-09 20:33:00,
2013-10-09 16:38:00,63.7,43.1,30.25,SE,126,0.0,2.0,47,0.00,,,0.00,Wunderground v.1.13,2013-10-09 20:38:00,
2013-10-09 16:43:00,63.6,44.1,30.25,East,94,6.0,7.0,49,0.00,,,0.00,Wunderground v.1.13,2013-10-09 20:43:00,
2013-10-09 16:48:00,63.5,42.3,30.25,East,94,0.0,6.0,46,0.00,,,0.00,Wunderground v.1.13,2013-10-09 20:48:00,
2013-10-09 16:53:00,63.4,41.7,30.25,East,94,0.0,2.0,45,0.00,,,0.00,Wunderground v.1.13,2013-10-09 20:53:00,
2013-10-09 16:58:00,63.2,41.5,30.25,East,94,0.0,4.0,45,0.00,,,0.00,Wunderground v.1.13,2013-10-09 20:58:00,
2013-10-09 17:03:00,63.1,42.0,30.25,East,94,0.0,4.0,46,0.00,,,0.00,Wunderground v.1.13,2013-10-09 21:03:00,
2013-10-09 17:08:00,62.9,42.9,30.25,East,94,0.0,2.0,48,0.00,,,0.00,Wunderground v.1.13,2013-10-09 21:08:00,
2013-10-09 17:13:00,62.8,42.3,30.25,East,94,0.0,2.0,47,0.00,,,0.00,Wunderground v.1.13,2013-10-09 21:13:00,
2013-10-09 17:18:00,62.6,43.2,30.25,East,94,0.0,0.0,49,0.00,,,0.00,Wunderground v.1.13,2013-10-09 21:18:00,
2013-10-09 17:23:00,62.5,42.5,30.25,East,94,2.0,2.0,48,0.00,,,0.00,Wunderground v.1.13,2013-10-09 21:23:00,
2013-10-09 17:28:00,62.4,43.5,30.24,East,94,0.0,1.0,50,0.00,,,0.00,Wunderground v.1.13,2013-10-09 21:28:00,
2013-10-09 17:33:00,62.4,44.5,30.24,East,94,0.0,0.0,52,0.00,,,0.00,Wunderground v.1.13,2013-10-09 21:33:00,
2013-10-09 17:38:00,62.3,45.4,30.24,East,94,0.0,0.0,54,0.00,,,0.00,Wunderground v.1.13,2013-10-09 21:38:00,
2013-10-09 17:43:00,62.3,46.9,30.25,East,94,0.0,0.0,57,0.00,,,0.00,Wunderground v.1.13,2013-10-09 21:43:00,
2013-10-09 17:48:00,62.2,47.2,30.24,East,94,0.0,0.0,58,0.00,,,0.00,Wunderground v.1.13,2013-10-09 21:48:00,
2013-10-09 17:53:00,62.1,48.5,30.24,East,94,0.0,0.0,61,0.00,,,0.00,Wunderground v.1.13,2013-10-09 21:53:00,
2013-10-09 17:58:00,61.9,48.7,30.24,East,94,0.0,0.0,62,0.00,,,0.00,Wunderground v.1.13,2013-10-09 21:58:00,
2013-10-09 18:03:00,61.6,48.4,30.24,East,94,0.0,0.0,62,0.00,,,0.00,Wunderground v.1.13,2013-10-09 22:03:00,
2013-10-09 18:08:00,61.2,48.5,30.24,East,94,0.0,0.0,63,0.00,,,0.00,Wunderground v.1.13,2013-10-09 22:08:00,
2013-10-09 18:13:00,60.9,48.6,30.24,East,94,0.0,0.0,64,0.00,,,0.00,Wunderground v.1.13,2013-10-09 22:13:00,
2013-10-09 18:18:00,60.5,48.7,30.24,East,94,0.0,0.0,65,0.00,,,0.00,Wunderground v.1.13,2013-10-09 22:18:00,
2013-10-09 18:23:00,60.1,49.1,30.24,East,94,0.0,0.0,67,0.00,,,0.00,Wunderground v.1.13,2013-10-09 22:23:00,
2013-10-09 18:28:00,59.8,49.2,30.24,East,94,0.0,0.0,68,0.00,,,0.00,Wunderground v.1.13,2013-10-09 22:28:00,
2013-10-09 18:33:00,59.3,49.1,30.24,East,94,0.0,0.0,69,0.00,,,0.00,Wunderground v.1.13,2013-10-09 22:33:00,
2013-10-09 18:38:00,58.8,48.6,30.24,East,94,0.0,0.0,69,0.00,,,0.00,Wunderground v.1.13,2013-10-09 22:38:00,
2013-10-09 18:43:00,58.4,48.3,30.24,East,94,0.0,0.0,69,0.00,,,0.00,Wunderground v.1.13,2013-10-09 22:43:00,
2013-10-09 18:48:00,57.9,47.8,30.25,East,94,0.0,0.0,69,0.00,,,0.00,Wunderground v.1.13,2013-10-09 22:48:00,
2013-10-09 18:53:00,57.4,47.7,30.25,East,94,0.0,0.0,70,0.00,,,0.00,Wunderground v.1.13,2013-10-09 22:53:00,
2013-10-09 18:58:00,56.9,47.2,30.25,East,94,0.0,0.0,70,0.00,,,0.00,Wunderground v.1.13,2013-10-09 22:58:00,
2013-10-09 19:03:00,56.5,47.2,30.25,East,94,0.0,0.0,71,0.00,,,0.00,Wunderground v.1.13,2013-10-09 23:03:00,
2013-10-09 19:08:00,56.0,47.5,30.24,East,94,0.0,0.0,73,0.00,,,0.00,Wunderground v.1.13,2013-10-09 23:08:00,
2013-10-09 19:13:00,55.5,47.3,30.24,East,94,0.0,0.0,74,0.00,,,0.00,Wunderground v.1.13,2013-10-09 23:13:00,
2013-10-09 19:18:00,55.2,47.1,30.25,East,94,0.0,0.0,74,0.00,,,0.00,Wunderground v.1.13,2013-10-09 23:18:00,
2013-10-09 19:23:00,54.8,47.0,30.25,East,94,0.0,0.0,75,0.00,,,0.00,Wunderground v.1.13,2013-10-09 23:23:00,
2013-10-09 19:28:00,54.5,46.7,30.25,East,94,0.0,0.0,75,0.00,,,0.00,Wunderground v.1.13,2013-10-09 23:28:00,
2013-10-09 19:33:00,54.1,46.7,30.25,East,94,0.0,0.0,76,0.00,,,0.00,Wunderground v.1.13,2013-10-09 23:33:00,
2013-10-09 19:38:00,53.8,46.4,30.25,East,94,0.0,0.0,76,0.00,,,0.00,Wunderground v.1.13,2013-10-09 23:38:00,
2013-10-09 19:43:00,53.5,46.5,30.25,East,94,0.0,0.0,77,0.00,,,0.00,Wunderground v.1.13,2013-10-09 23:43:00,
2013-10-09 19:48:00,53.2,46.2,30.25,East,94,0.0,0.0,77,0.00,,,0.00,Wunderground v.1.13,2013-10-09 23:48:00,
2013-10-09 19:53:00,53.0,46.0,30.25,East,94,0.0,0.0,77,0.00,,,0.00,Wunderground v.1.13,2013-10-09 23:53:00,
2013-10-09 19:58:00,52.7,46.4,30.25,East,94,0.0,0.0,79,0.00,,,0.00,Wunderground v.1.13,2013-10-09 23:58:00,
2013-10-09 20:03:00,52.6,46.3,30.25,East,94,0.0,0.0,79,0.00,,,0.00,Wunderground v.1.13,2013-10-10 00:03:00,
2013-10-09 20:08:00,52.3,46.3,30.24,East,94,0.0,0.0,80,0.00,,,0.00,Wunderground v.1.13,2013-10-10 00:08:00,
2013-10-09 20:13:00,52.1,46.1,30.24,East,94,0.0,0.0,80,0.00,,,0.00,Wunderground v.1.13,2013-10-10 00:13:00,
2013-10-09 20:19:00,51.9,46.3,30.25,East,94,0.0,0.0,81,0.00,,,0.00,Wunderground v.1.13,2013-10-10 00:19:00,
2013-10-09 20:24:00,51.7,46.4,30.25,East,94,0.0,0.0,82,0.00,,,0.00,Wunderground v.1.13,2013-10-10 00:24:00,
2013-10-09 20:29:00,51.6,46.9,30.25,East,94,0.0,0.0,84,0.00,,,0.00,Wunderground v.1.13,2013-10-10 00:29:00,
2013-10-09 20:34:00,51.4,46.7,30.24,East,94,0.0,0.0,84,0.00,,,0.00,Wunderground v.1.13,2013-10-10 00:34:00,
2013-10-09 20:39:00,51.2,46.5,30.24,East,94,0.0,0.0,84,0.00,,,0.00,Wunderground v.1.13,2013-10-10 00:39:00,
2013-10-09 20:44:00,51.0,46.3,30.24,East,94,0.0,0.0,84,0.00,,,0.00,Wunderground v.1.13,2013-10-10 00:44:00,
2013-10-09 20:49:00,50.8,46.1,30.24,East,94,0.0,0.0,84,0.00,,,0.00,Wunderground v.1.13,2013-10-10 00:49:00,
2013-10-09 20:54:00,50.6,45.9,30.24,East,94,0.0,0.0,84,0.00,,,0.00,Wunderground v.1.13,2013-10-10 00:54:00,
2013-10-09 20:59:00,50.5,46.2,30.24,East,94,0.0,0.0,85,0.00,,,0.00,Wunderground v.1.13,2013-10-10 00:59:00,
2013-10-09 21:04:00,50.3,46.0,30.25,East,94,0.0,0.0,85,0.00,,,0.00,Wunderground v.1.13,2013-10-10 01:04:00,
2013-10-09 21:09:00,50.2,45.9,30.25,East,94,0.0,0.0,85,0.00,,,0.00,Wunderground v.1.13,2013-10-10 01:09:00,
2013-10-09 21:14:00,50.0,46.9,30.25,East,94,0.0,0.0,89,0.00,,,0.00,Wunderground v.1.13,2013-10-10 01:14:00,
2013-10-09 21:19:00,49.9,45.9,30.25,East,94,0.0,0.0,86,0.00,,,0.00,Wunderground v.1.13,2013-10-10 01:19:00,
2013-10-09 21:24:00,49.7,45.7,30.25,East,94,0.0,0.0,86,0.00,,,0.00,Wunderground v.1.13,2013-10-10 01:24:00,
2013-10-09 21:29:00,49.6,45.6,30.25,East,94,0.0,0.0,86,0.00,,,0.00,Wunderground v.1.13,2013-10-10 01:29:00,
2013-10-09 21:34:00,49.5,45.8,30.25,East,94,0.0,0.0,87,0.00,,,0.00,Wunderground v.1.13,2013-10-10 01:34:00,
2013-10-09 21:39:00,49.3,45.6,30.25,East,94,0.0,0.0,87,0.00,,,0.00,Wunderground v.1.13,2013-10-10 01:39:00,
2013-10-09 21:44:00,49.2,45.8,30.25,East,94,0.0,0.0,88,0.00,,,0.00,Wunderground v.1.13,2013-10-10 01:44:00,
2013-10-09 21:49:00,49.1,45.7,30.25,East,94,0.0,0.0,88,0.00,,,0.00,Wunderground v.1.13,2013-10-10 01:49:00,
2013-10-09 21:54:00,49.0,45.9,30.25,East,94,0.0,1.0,89,0.00,,,0.00,Wunderground v.1.13,2013-10-10 01:54:00,
2013-10-09 21:59:00,48.8,45.7,30.24,East,94,0.0,1.0,89,0.00,,,0.00,Wunderground v.1.13,2013-10-10 01:59:00,
2013-10-09 22:04:00,48.8,45.7,30.24,East,94,0.0,0.0,89,0.00,,,0.00,Wunderground v.1.13,2013-10-10 02:04:00,
2013-10-09 22:09:00,48.7,45.6,30.24,East,94,0.0,1.0,89,0.00,,,0.00,Wunderground v.1.13,2013-10-10 02:09:00,
2013-10-09 22:14:00,48.6,45.5,30.24,East,94,0.0,0.0,89,0.00,,,0.00,Wunderground v.1.13,2013-10-10 02:14:00,
2013-10-09 22:19:00,48.5,45.7,30.24,East,94,0.0,0.0,90,0.00,,,0.00,Wunderground v.1.13,2013-10-10 02:19:00,
2013-10-09 22:24:00,48.5,45.7,30.24,East,94,0.0,0.0,90,0.00,,,0.00,Wunderground v.1.13,2013-10-10 02:24:00,
2013-10-09 22:29:00,48.5,45.7,30.24,East,94,0.0,0.0,90,0.00,,,0.00,Wunderground v.1.13,2013-10-10 02:29:00,
2013-10-09 22:34:00,48.5,45.7,30.24,East,94,1.0,5.0,90,0.00,,,0.00,Wunderground v.1.13,2013-10-10 02:34:00,
2013-10-09 22:39:00,48.4,45.6,30.24,ENE,71,0.0,3.0,90,0.00,,,0.00,Wunderground v.1.13,2013-10-10 02:39:00,
2013-10-09 22:44:00,48.4,45.6,30.24,ENE,67,0.0,4.0,90,0.00,,,0.00,Wunderground v.1.13,2013-10-10 02:44:00,
2013-10-09 22:49:00,48.4,45.6,30.23,ENE,67,0.0,1.0,90,0.00,,,0.00,Wunderground v.1.13,2013-10-10 02:49:00,
2013-10-09 22:54:00,48.5,45.7,30.23,ENE,67,0.0,1.0,90,0.00,,,0.00,Wunderground v.1.13,2013-10-10 02:54:00,
2013-10-09 22:59:00,48.5,45.4,30.23,ENE,67,0.0,1.0,89,0.00,,,0.00,Wunderground v.1.13,2013-10-10 02:59:00,
2013-10-09 23:04:00,48.5,45.4,30.23,ENE,67,0.0,0.0,89,0.00,,,0.00,Wunderground v.1.13,2013-10-10 03:04:00,
2013-10-09 23:09:00,48.5,45.4,30.23,ENE,67,0.0,0.0,89,0.00,,,0.00,Wunderground v.1.13,2013-10-10 03:09:00,
2013-10-09 23:14:00,48.5,45.4,30.23,ENE,67,1.0,1.0,89,0.00,,,0.00,Wunderground v.1.13,2013-10-10 03:14:00,
2013-10-09 23:19:00,48.5,45.4,30.23,ENE,67,0.0,0.0,89,0.00,,,0.00,Wunderground v.1.13,2013-10-10 03:19:00,
2013-10-09 23:24:00,48.5,45.4,30.22,ENE,67,0.0,1.0,89,0.00,,,0.00,Wunderground v.1.13,2013-10-10 03:24:00,
2013-10-09 23:29:00,48.5,45.4,30.22,ENE,67,0.0,0.0,89,0.00,,,0.00,Wunderground v.1.13,2013-10-10 03:29:00,
2013-10-09 23:34:00,48.5,45.4,30.22,ENE,67,0.0,0.0,89,0.00,,,0.00,Wunderground v.1.13,2013-10-10 03:34:00,
2013-10-09 23:39:00,48.5,45.4,30.22,ENE,67,0.0,1.0,89,0.00,,,0.00,Wunderground v.1.13,2013-10-10 03:39:00,
2013-10-09 23:44:00,48.5,45.4,30.22,ENE,67,0.0,1.0,89,0.00,,,0.00,Wunderground v.1.13,2013-10-10 03:44:00,
2013-10-09 23:49:00,48.6,45.5,30.22,ENE,67,0.0,1.0,89,0.00,,,0.00,Wunderground v.1.13,2013-10-10 03:49:00,
2013-10-09 23:54:00,48.6,45.5,30.22,ENE,67,0.0,0.0,89,0.00,,,0.00,Wunderground v.1.13,2013-10-10 03:54:00,
2013-10-09 23:59:00,48.7,45.6,30.22,ENE,67,0.0,5.0,89,0.00,,,0.00,Wunderground v.1.13,2013-10-10 03:59:00,